createdAt,value
2018-05-29T00:01:35.936Z,64.50
2018-05-29T00:03:37.460Z,64.40
2018-05-29T00:05:39.031Z,64.50
2018-05-29T00:07:40.536Z,64.98
2018-05-29T00:09:42.053Z,64.69
2018-05-29T00:11:43.529Z,65.08
2018-05-29T00:13:45.131Z,65.85
2018-05-29T00:15:46.809Z,65.85
2018-05-29T00:17:48.307Z,65.66
2018-05-29T00:19:49.830Z,66.34
2018-05-29T00:21:51.354Z,66.53
2018-05-29T00:23:52.855Z,66.53
2018-05-29T00:25:54.369Z,66.69
2018-05-29T00:27:55.963Z,67.08
2018-05-29T00:29:57.461Z,67.08
2018-05-29T00:31:58.926Z,67.27
2018-05-29T00:34:00.418Z,67.76
2018-05-29T00:36:01.886Z,67.66
2018-05-29T00:38:03.355Z,68.15
2018-05-29T00:40:04.802Z,68.15
2018-05-29T00:42:06.240Z,68.15
2018-05-29T00:44:07.676Z,68.33
2018-05-29T00:46:09.106Z,68.63
2018-05-29T00:48:10.549Z,68.82
2018-05-29T00:50:11.968Z,68.63
2018-05-29T00:52:13.539Z,69.11
2018-05-29T00:54:15.010Z,69.17
2018-05-29T00:56:16.542Z,69.37
2018-05-29T00:58:18.215Z,68.79
2018-05-29T01:00:19.940Z,69.08
2018-05-29T01:02:22.146Z,69.56
2018-05-29T01:04:23.837Z,69.27
2018-05-29T01:06:25.501Z,69.27
2018-05-29T01:08:27.105Z,69.46
2018-05-29T01:10:29.301Z,70.04
2018-05-29T01:12:30.982Z,69.85
2018-05-29T01:14:32.498Z,69.75
2018-05-29T01:16:34.224Z,70.34
2018-05-29T01:18:35.693Z,70.24
2018-05-29T01:20:37.155Z,70.30
2018-05-29T01:22:38.648Z,70.62
2018-05-29T01:24:40.191Z,70.82
2018-05-29T01:26:41.676Z,70.59
2018-05-29T01:28:43.192Z,71.26
2018-05-29T01:30:44.743Z,71.08
2018-05-29T01:32:46.242Z,70.98
2018-05-29T01:34:47.852Z,70.98
2018-05-29T01:36:49.337Z,71.36
2018-05-29T01:38:50.823Z,71.26
2018-05-29T01:40:52.322Z,71.56
2018-05-29T01:42:53.781Z,71.75
2018-05-29T01:44:55.315Z,72.24
2018-05-29T01:46:56.782Z,71.75
2018-05-29T01:48:58.338Z,71.72
2018-05-29T01:50:59.811Z,72.20
2018-05-29T01:53:01.363Z,72.49
2018-05-29T01:55:02.904Z,71.94
2018-05-29T01:57:04.458Z,72.68
2018-05-29T01:59:05.965Z,72.78
2018-05-29T02:01:07.468Z,72.88
2018-05-29T02:03:09.730Z,72.88
2018-05-29T02:05:11.561Z,73.07
2018-05-29T02:07:13.846Z,72.58
2018-05-29T02:09:15.575Z,73.16
2018-05-29T02:11:17.347Z,73.07
2018-05-29T02:13:18.859Z,73.07
2018-05-29T02:15:20.336Z,72.97
2018-05-29T02:17:21.837Z,72.97
2018-05-29T02:19:23.392Z,73.46
2018-05-29T02:21:25.082Z,73.32
2018-05-29T02:23:26.623Z,73.80
2018-05-29T02:25:28.091Z,73.71
2018-05-29T02:27:29.635Z,73.52
2018-05-29T02:29:31.490Z,73.71
2018-05-29T02:31:33.866Z,74.23
2018-05-29T02:33:35.532Z,74.10
2018-05-29T02:35:37.339Z,74.38
2018-05-29T02:37:38.769Z,74.29
2018-05-29T02:39:40.244Z,74.48
2018-05-29T02:41:41.821Z,74.29
2018-05-29T02:43:43.391Z,74.10
2018-05-29T02:45:44.901Z,74.38
2018-05-29T02:47:46.387Z,74.58
2018-05-29T02:49:47.825Z,74.58
2018-05-29T02:51:49.312Z,74.68
2018-05-29T02:53:50.777Z,74.87
2018-05-29T02:55:52.375Z,74.96
2018-05-29T02:57:53.859Z,74.87
2018-05-29T02:59:55.384Z,74.87
2018-05-29T03:01:56.990Z,75.06
2018-05-29T03:03:58.496Z,75.35
2018-05-29T03:05:59.958Z,75.35
2018-05-29T03:08:01.423Z,75.41
2018-05-29T03:10:02.906Z,75.41
2018-05-29T03:12:04.402Z,75.31
2018-05-29T03:14:05.911Z,75.22
2018-05-29T03:16:07.790Z,75.51
2018-05-29T03:18:09.536Z,75.70
2018-05-29T03:20:11.305Z,75.31
2018-05-29T03:22:12.908Z,75.60
2018-05-29T03:24:14.415Z,75.70
2018-05-29T03:26:16.058Z,75.89
2018-05-29T03:28:18.369Z,76.09
2018-05-29T03:30:20.674Z,75.60
2018-05-29T03:32:22.396Z,76.09
2018-05-29T03:34:23.891Z,76.09
2018-05-29T03:36:25.439Z,75.79
2018-05-29T03:38:27.181Z,75.51
2018-05-29T03:40:29.323Z,76.09
2018-05-29T03:42:30.989Z,75.51
2018-05-29T03:44:33.339Z,75.99
2018-05-29T03:46:35.667Z,75.89
2018-05-29T03:48:37.924Z,76.47
2018-05-29T03:50:40.244Z,76.37
2018-05-29T03:52:41.692Z,76.18
2018-05-29T03:54:43.192Z,76.18
2018-05-29T03:56:44.712Z,75.79
2018-05-29T03:58:46.232Z,75.99
2018-05-29T04:00:48.307Z,75.95
2018-05-29T04:02:49.936Z,76.47
2018-05-29T04:04:51.685Z,76.76
2018-05-29T04:06:53.149Z,76.86
2018-05-29T04:08:54.717Z,76.67
2018-05-29T04:10:56.243Z,76.76
2018-05-29T04:12:57.783Z,76.47
2018-05-29T04:14:59.558Z,76.57
2018-05-29T04:17:01.293Z,76.47
2018-05-29T04:19:02.947Z,76.86
2018-05-29T04:21:04.495Z,76.57
2018-05-29T04:23:05.976Z,76.37
2018-05-29T04:25:07.746Z,76.86
2018-05-29T04:27:09.440Z,76.95
2018-05-29T04:29:11.653Z,77.05
2018-05-29T04:31:13.183Z,77.15
2018-05-29T04:33:14.697Z,77.25
2018-05-29T04:35:16.194Z,76.95
2018-05-29T04:37:17.725Z,77.25
2018-05-29T04:39:19.297Z,76.95
2018-05-29T04:41:20.778Z,77.34
2018-05-29T04:43:22.273Z,77.34
2018-05-29T04:45:23.755Z,77.63
2018-05-29T04:47:25.264Z,78.02
2018-05-29T04:49:26.768Z,77.63
2018-05-29T04:51:28.293Z,78.11
2018-05-29T04:53:29.800Z,77.73
2018-05-29T04:55:31.350Z,77.53
2018-05-29T04:57:32.915Z,77.83
2018-05-29T04:59:34.385Z,78.02
2018-05-29T05:01:35.908Z,77.63
2018-05-29T05:03:37.383Z,77.83
2018-05-29T05:05:38.919Z,76.95
2018-05-29T05:07:40.442Z,77.09
2018-05-29T05:09:41.940Z,77.76
2018-05-29T05:11:43.678Z,77.57
2018-05-29T05:13:45.734Z,78.06
2018-05-29T05:16:28.266Z,76.70
2018-05-29T05:18:29.698Z,76.90
2018-05-29T05:20:31.154Z,76.80
2018-05-29T05:22:32.838Z,77.38
2018-05-29T05:24:34.895Z,77.38
2018-05-29T05:26:36.343Z,77.67
2018-05-29T05:28:37.924Z,77.71
2018-05-29T05:30:39.816Z,77.71
2018-05-29T05:32:41.626Z,77.03
2018-05-29T05:34:43.399Z,77.13
2018-05-29T05:36:45.147Z,76.45
2018-05-29T05:38:46.933Z,75.04
2018-05-29T05:40:48.900Z,74.11
2018-05-29T05:42:50.697Z,72.02
2018-05-29T05:44:52.534Z,71.66
2018-05-29T05:46:54.441Z,70.15
2018-05-29T05:48:56.230Z,68.63
2018-05-29T05:50:58.051Z,65.75
2018-05-29T05:52:59.694Z,64.65
2018-05-29T05:55:42.133Z,62.74
2018-05-29T05:57:43.709Z,62.29
2018-05-29T05:59:45.377Z,60.96
2018-05-29T06:01:47.448Z,59.14
2018-05-29T06:03:49.340Z,56.40
2018-05-29T06:05:51.215Z,54.34
2018-05-29T06:07:52.976Z,51.46
2018-05-29T06:09:54.806Z,48.48
2018-05-29T06:11:56.713Z,46.86
2018-05-29T06:13:58.420Z,45.05
2018-05-29T06:16:00.492Z,43.62
2018-05-29T06:18:02.332Z,43.33
2018-05-29T06:20:04.816Z,43.94
2018-05-29T06:22:06.599Z,42.66
2018-05-29T06:24:08.631Z,43.04
2018-05-29T06:26:10.480Z,44.38
2018-05-29T06:28:12.316Z,44.98
2018-05-29T06:30:13.827Z,44.45
2018-05-29T06:32:15.479Z,42.11
2018-05-29T06:34:17.244Z,41.98
2018-05-29T06:37:00.268Z,38.99
2018-05-29T06:39:01.797Z,36.65
2018-05-29T06:41:03.843Z,35.60
2018-05-29T06:43:08.477Z,34.94
2018-05-29T06:45:10.416Z,33.37
2018-05-29T06:47:12.584Z,34.38
2018-05-29T06:49:14.494Z,31.84
2018-05-29T06:51:16.661Z,31.74
2018-05-29T06:53:18.487Z,31.76
2018-05-29T06:55:20.276Z,30.47
2018-05-29T06:57:22.226Z,31.96
2018-05-29T06:59:24.110Z,30.77
2018-05-29T07:01:25.866Z,30.67
2018-05-29T07:03:28.043Z,30.39
2018-05-29T07:05:29.817Z,29.20
2018-05-29T07:07:31.722Z,30.21
2018-05-29T07:09:33.252Z,28.62
2018-05-29T07:11:34.690Z,28.72
2018-05-29T07:13:36.144Z,29.71
2018-05-29T07:15:37.595Z,29.30
2018-05-29T07:17:39.052Z,30.37
2018-05-29T07:19:40.550Z,31.74
2018-05-29T07:21:42.141Z,31.30
2018-05-29T07:23:43.641Z,32.26
2018-05-29T07:25:45.163Z,34.27
2018-05-29T07:27:46.713Z,36.28
2018-05-29T07:29:48.163Z,37.52
2018-05-29T07:31:49.607Z,39.33
2018-05-29T07:33:51.053Z,40.78
2018-05-29T07:35:52.504Z,42.70
2018-05-29T07:37:54.071Z,44.03
2018-05-29T07:39:55.893Z,45.84
2018-05-29T07:41:57.338Z,47.67
2018-05-29T07:43:58.785Z,47.75
2018-05-29T07:46:00.369Z,49.49
2018-05-29T07:48:01.967Z,49.76
2018-05-29T07:50:03.749Z,50.34
2018-05-29T07:52:05.540Z,50.63
2018-05-29T07:54:07.145Z,51.90
2018-05-29T07:56:08.666Z,51.78
2018-05-29T07:58:10.162Z,51.58
2018-05-29T08:00:11.690Z,52.24
2018-05-29T08:02:13.248Z,52.85
2018-05-29T08:04:14.959Z,51.97
2018-05-29T08:06:16.868Z,50.58
2018-05-29T08:08:18.587Z,50.38
2018-05-29T08:10:20.107Z,50.78
2018-05-29T08:12:21.632Z,53.44
2018-05-29T08:14:23.135Z,53.80
2018-05-29T08:16:25.023Z,52.14
2018-05-29T08:18:26.858Z,52.66
2018-05-29T08:20:28.696Z,54.70
2018-05-29T08:22:30.480Z,54.02
2018-05-29T08:24:32.235Z,53.05
2018-05-29T08:26:33.962Z,55.41
2018-05-29T08:28:35.695Z,52.97
2018-05-29T08:30:37.237Z,52.78
2018-05-29T08:32:38.756Z,52.68
2018-05-29T08:34:40.681Z,52.78
2018-05-29T08:36:42.982Z,53.09
2018-05-29T08:38:45.278Z,51.56
2018-05-29T08:40:47.000Z,51.66
2018-05-29T08:42:48.709Z,51.95
2018-05-29T08:44:50.218Z,51.27
2018-05-29T08:46:51.746Z,48.63
2018-05-29T08:48:53.233Z,48.94
2018-05-29T08:50:54.711Z,49.53
2018-05-29T08:52:56.220Z,50.24
2018-05-29T08:54:58.219Z,48.28
2018-05-29T08:56:59.953Z,49.16
2018-05-29T08:59:01.486Z,48.77
2018-05-29T09:01:02.994Z,48.99
2018-05-29T09:03:04.460Z,49.19
2018-05-29T09:05:05.939Z,47.92
2018-05-29T09:07:07.422Z,48.31
2018-05-29T09:09:08.860Z,47.45
2018-05-29T09:11:10.325Z,47.55
2018-05-29T09:13:11.761Z,47.08
2018-05-29T09:15:13.234Z,47.38
2018-05-29T09:17:14.682Z,46.42
2018-05-29T09:19:16.128Z,47.60
2018-05-29T09:21:17.580Z,46.13
2018-05-29T09:23:19.042Z,44.17
2018-05-29T09:25:20.493Z,45.05
2018-05-29T09:27:22.437Z,45.83
2018-05-29T09:29:23.973Z,43.58
2018-05-29T09:31:25.583Z,41.82
2018-05-29T09:33:27.041Z,41.82
2018-05-29T09:35:28.522Z,41.62
2018-05-29T09:37:29.946Z,42.62
2018-05-29T09:39:31.392Z,43.41
2018-05-29T09:41:32.855Z,42.23
2018-05-29T09:43:34.291Z,42.33
2018-05-29T09:45:35.744Z,44.12
2018-05-29T09:47:37.379Z,41.37
2018-05-29T09:49:38.881Z,41.08
2018-05-29T09:51:40.357Z,42.15
2018-05-29T09:53:41.895Z,39.90
2018-05-29T09:55:43.384Z,40.78
2018-05-29T09:57:44.902Z,40.68
2018-05-29T09:59:46.384Z,42.47
2018-05-29T10:01:47.835Z,42.18
2018-05-29T10:03:49.288Z,39.33
2018-05-29T10:05:50.745Z,40.03
2018-05-29T10:07:52.189Z,40.82
2018-05-29T10:09:53.638Z,37.66
2018-05-29T10:11:55.087Z,39.74
2018-05-29T10:13:56.539Z,38.56
2018-05-29T10:15:57.989Z,38.07
2018-05-29T10:17:59.713Z,36.91
2018-05-29T10:20:01.173Z,37.50
2018-05-29T10:22:02.732Z,35.74
2018-05-29T10:24:04.241Z,37.90
2018-05-29T10:26:05.736Z,37.82
2018-05-29T10:28:07.191Z,35.55
2018-05-29T10:30:08.733Z,34.87
2018-05-29T10:32:10.278Z,36.34
2018-05-29T10:34:11.775Z,36.15
2018-05-29T10:36:13.247Z,35.66
2018-05-29T10:38:55.741Z,36.63
2018-05-29T10:40:57.219Z,37.72
2018-05-29T10:42:58.668Z,35.87
2018-05-29T10:45:00.117Z,36.83
2018-05-29T10:47:01.576Z,37.54
2018-05-29T10:49:03.025Z,37.05
2018-05-29T10:51:04.498Z,37.36
2018-05-29T10:53:05.956Z,34.00
2018-05-29T10:55:07.402Z,36.85
2018-05-29T10:57:08.899Z,35.67
2018-05-29T10:59:10.409Z,35.47
2018-05-29T11:01:11.803Z,35.78
2018-05-29T11:03:13.253Z,36.08
2018-05-29T11:05:14.707Z,34.90
2018-05-29T11:07:16.156Z,36.08
2018-05-29T11:09:17.618Z,35.78
2018-05-29T11:11:19.069Z,36.87
2018-05-29T11:13:20.521Z,36.08
2018-05-29T11:15:21.971Z,35.88
2018-05-29T11:17:23.421Z,35.99
2018-05-29T11:19:24.912Z,35.67
2018-05-29T11:21:26.366Z,36.67
2018-05-29T11:23:27.815Z,34.90
2018-05-29T11:25:29.273Z,34.80
2018-05-29T11:27:30.735Z,36.57
2018-05-29T11:29:32.204Z,34.70
2018-05-29T11:31:33.664Z,34.41
2018-05-29T11:33:35.118Z,34.90
2018-05-29T11:35:36.573Z,34.61
2018-05-29T11:37:38.057Z,36.18
2018-05-29T11:39:39.628Z,35.88
2018-05-29T11:41:41.180Z,34.51
2018-05-29T11:43:42.602Z,36.47
2018-05-29T11:45:44.066Z,35.99
2018-05-29T11:47:45.526Z,35.51
2018-05-29T11:49:46.976Z,34.70
2018-05-29T11:51:48.429Z,34.41
2018-05-29T11:53:49.878Z,34.51
2018-05-29T11:55:51.332Z,34.22
2018-05-29T11:57:52.781Z,34.80
2018-05-29T11:59:54.236Z,34.80
2018-05-29T12:01:56.417Z,34.92
2018-05-29T12:03:57.913Z,35.02
2018-05-29T12:05:59.364Z,35.20
2018-05-29T12:08:00.873Z,35.38
2018-05-29T12:10:02.398Z,34.97
2018-05-29T12:12:03.854Z,36.24
2018-05-29T12:14:05.468Z,35.83
2018-05-29T12:16:06.920Z,36.52
2018-05-29T12:18:08.365Z,36.01
2018-05-29T12:20:09.817Z,37.38
2018-05-29T12:22:11.269Z,37.98
2018-05-29T12:24:12.717Z,37.58
2018-05-29T12:26:14.224Z,36.58
2018-05-29T12:28:15.676Z,36.86
2018-05-29T12:30:17.108Z,36.57
2018-05-29T12:32:18.554Z,36.86
2018-05-29T12:34:20.025Z,37.76
2018-05-29T12:36:21.475Z,37.76
2018-05-29T12:38:22.923Z,39.41
2018-05-29T12:40:24.397Z,37.66
2018-05-29T12:42:25.851Z,38.15
2018-05-29T12:44:27.308Z,38.15
2018-05-29T12:46:28.797Z,38.35
2018-05-29T12:48:30.224Z,37.68
2018-05-29T12:50:31.744Z,38.96
2018-05-29T12:52:33.247Z,36.80
2018-05-29T12:54:34.816Z,38.29
2018-05-29T12:56:36.308Z,38.21
2018-05-29T12:58:37.857Z,36.63
2018-05-29T13:00:39.405Z,38.01
2018-05-29T13:02:40.887Z,36.52
2018-05-29T13:04:42.403Z,36.72
2018-05-29T13:06:43.877Z,37.48
2018-05-29T13:08:45.375Z,37.56
2018-05-29T13:10:46.891Z,38.45
2018-05-29T13:12:48.437Z,39.03
2018-05-29T13:14:49.953Z,39.80
2018-05-29T13:16:51.413Z,40.78
2018-05-29T13:18:53.068Z,40.78
2018-05-29T13:20:54.771Z,39.70
2018-05-29T13:22:56.220Z,39.62
2018-05-29T13:24:57.736Z,38.06
2018-05-29T13:26:59.252Z,36.58
2018-05-29T13:29:00.737Z,36.39
2018-05-29T13:31:02.284Z,36.98
2018-05-29T13:33:03.861Z,36.49
2018-05-29T13:35:05.290Z,36.60
2018-05-29T13:37:06.748Z,35.31
2018-05-29T13:39:08.203Z,36.70
2018-05-29T13:41:09.644Z,37.68
2018-05-29T13:43:11.097Z,36.72
2018-05-29T13:45:12.554Z,36.51
2018-05-29T13:47:14.024Z,36.11
2018-05-29T13:49:15.486Z,36.60
2018-05-29T13:51:16.923Z,36.51
2018-05-29T13:53:18.386Z,38.37
2018-05-29T13:55:19.837Z,37.60
2018-05-29T13:57:21.286Z,36.72
2018-05-29T13:59:22.753Z,35.54
2018-05-29T14:01:24.208Z,36.62
2018-05-29T14:03:25.728Z,36.30
2018-05-29T14:05:27.148Z,36.70
2018-05-29T14:07:28.598Z,36.11
2018-05-29T14:09:30.045Z,36.21
2018-05-29T14:11:31.506Z,35.99
2018-05-29T14:13:33.027Z,35.68
2018-05-29T14:15:34.571Z,36.86
2018-05-29T14:17:36.104Z,37.15
2018-05-29T14:19:37.570Z,37.45
2018-05-29T14:21:39.073Z,37.43
2018-05-29T14:23:40.576Z,38.41
2018-05-29T14:25:42.107Z,38.51
2018-05-29T14:27:43.542Z,37.90
2018-05-29T14:29:45.002Z,39.37
2018-05-29T14:31:46.446Z,39.49
2018-05-29T14:33:47.909Z,39.09
2018-05-29T14:35:49.559Z,39.86
2018-05-29T14:37:51.161Z,39.56
2018-05-29T14:39:52.710Z,39.49
2018-05-29T14:41:54.209Z,39.29
2018-05-29T14:43:55.718Z,39.19
2018-05-29T14:45:57.141Z,40.47
2018-05-29T14:47:58.632Z,40.47
2018-05-29T14:50:00.371Z,39.88
2018-05-29T14:52:02.004Z,39.86
2018-05-29T14:54:03.687Z,39.96
2018-05-29T14:56:05.437Z,40.94
2018-05-29T14:58:07.005Z,39.86
2018-05-29T15:00:08.508Z,40.45
2018-05-29T15:02:50.965Z,40.72
2018-05-29T15:04:52.412Z,40.82
2018-05-29T15:06:53.861Z,41.41
2018-05-29T15:08:55.493Z,41.21
2018-05-29T15:10:56.938Z,42.78
2018-05-29T15:12:58.383Z,41.70
2018-05-29T15:14:59.836Z,42.09
2018-05-29T15:17:01.429Z,42.29
2018-05-29T15:19:03.036Z,42.76
2018-05-29T15:21:04.642Z,43.05
2018-05-29T15:23:06.411Z,43.05
2018-05-29T15:25:08.020Z,43.84
2018-05-29T15:27:09.599Z,43.03
2018-05-29T15:29:11.158Z,43.73
2018-05-29T15:31:12.652Z,43.34
2018-05-29T15:33:14.228Z,42.25
2018-05-29T15:35:15.724Z,42.54
2018-05-29T15:37:17.202Z,42.52
2018-05-29T15:39:18.689Z,42.71
2018-05-29T15:41:20.273Z,43.01
2018-05-29T15:43:21.930Z,43.99
2018-05-29T15:45:23.528Z,43.01
2018-05-29T15:47:25.104Z,42.69
2018-05-29T15:49:26.959Z,42.50
2018-05-29T15:51:28.461Z,42.69
2018-05-29T15:53:30.189Z,43.28
2018-05-29T15:55:31.880Z,44.73
2018-05-29T15:57:33.377Z,45.31
2018-05-29T15:59:34.945Z,45.80
2018-05-29T16:01:36.433Z,46.36
2018-05-29T16:03:37.973Z,46.95
2018-05-29T16:05:39.715Z,47.44
2018-05-29T16:07:41.220Z,48.19
2018-05-29T16:09:42.740Z,48.29
2018-05-29T16:11:44.609Z,47.80
2018-05-29T16:13:46.143Z,48.90
2018-05-29T16:15:47.625Z,49.46
2018-05-29T16:17:49.511Z,49.56
2018-05-29T16:19:51.308Z,49.66
2018-05-29T16:21:53.263Z,48.10
2018-05-29T16:23:54.976Z,48.78
2018-05-29T16:25:56.833Z,49.46
2018-05-29T16:28:39.411Z,50.14
2018-05-29T16:30:40.849Z,49.76
2018-05-29T16:32:42.335Z,49.46
2018-05-29T16:34:43.937Z,49.15
2018-05-29T16:36:45.315Z,50.02
2018-05-29T16:39:27.764Z,51.07
2018-05-29T16:41:30.284Z,50.09
2018-05-29T16:43:31.717Z,50.09
2018-05-29T16:45:33.137Z,51.19
2018-05-29T16:47:34.655Z,51.87
2018-05-29T16:49:36.079Z,51.56
2018-05-29T16:51:37.524Z,51.56
2018-05-29T16:53:39.017Z,51.39
2018-05-29T16:55:40.470Z,52.83
2018-05-29T16:57:42.025Z,57.60
2018-05-29T16:59:43.461Z,61.69
2018-05-29T17:01:45.030Z,64.23
2018-05-29T17:03:46.544Z,65.56
2018-05-29T17:05:48.339Z,63.61
2018-05-29T17:07:49.926Z,64.87
2018-05-29T17:09:51.668Z,65.04
2018-05-29T17:11:53.451Z,66.02
2018-05-29T17:13:55.209Z,66.89
2018-05-29T17:15:56.748Z,68.02
2018-05-29T17:17:58.261Z,68.32
2018-05-29T17:20:00.154Z,67.54
2018-05-29T17:22:01.646Z,69.10
2018-05-29T17:24:03.168Z,70.56
2018-05-29T17:26:04.686Z,70.95
2018-05-29T17:28:06.210Z,71.11
2018-05-29T17:30:07.940Z,71.50
2018-05-29T17:32:09.486Z,71.78
2018-05-29T17:34:11.320Z,72.24
2018-05-29T17:36:12.879Z,71.46
2018-05-29T17:38:14.464Z,70.45
2018-05-29T17:40:15.915Z,69.74
2018-05-29T17:42:17.429Z,67.57
2018-05-29T17:44:18.960Z,67.44
2018-05-29T17:46:20.493Z,71.19
2018-05-29T17:48:22.036Z,72.35
2018-05-29T17:50:23.548Z,71.44
2018-05-29T17:52:25.116Z,74.35
2018-05-29T17:54:26.599Z,74.93
2018-05-29T17:56:28.276Z,74.64
2018-05-29T17:58:29.845Z,75.71
2018-05-29T18:00:31.376Z,72.12
2018-05-29T18:02:33.136Z,72.35
2018-05-29T18:04:34.831Z,74.43
2018-05-29T18:06:36.351Z,73.84
2018-05-29T18:08:37.863Z,70.06
2018-05-29T18:10:39.380Z,70.87
2018-05-29T18:12:40.890Z,72.13
2018-05-29T18:14:42.488Z,71.36
2018-05-29T18:16:43.991Z,70.77
2018-05-29T18:18:45.511Z,71.55
2018-05-29T18:20:47.086Z,71.94
2018-05-29T18:22:48.918Z,72.23
2018-05-29T18:24:50.601Z,72.61
2018-05-29T18:26:52.188Z,72.52
2018-05-29T18:28:53.976Z,71.36
2018-05-29T18:30:55.821Z,72.03
2018-05-29T18:32:57.848Z,73.00
2018-05-29T18:34:59.761Z,72.71
2018-05-29T18:37:01.390Z,72.13
2018-05-29T18:39:02.928Z,72.61
2018-05-29T18:41:04.468Z,71.55
2018-05-29T18:43:06.057Z,71.64
2018-05-29T18:45:07.926Z,71.45
2018-05-29T18:47:09.783Z,72.42
2018-05-29T18:49:11.627Z,72.81
2018-05-29T18:51:13.066Z,72.81
2018-05-29T18:53:14.669Z,72.91
2018-05-29T18:55:16.223Z,72.42
2018-05-29T18:57:58.653Z,71.12
2018-05-29T19:00:03.397Z,72.35
2018-05-29T19:02:04.711Z,72.93
2018-05-29T19:04:07.635Z,73.90
2018-05-29T19:06:09.791Z,71.73
2018-05-29T19:08:51.578Z,71.83
2018-05-29T19:10:53.221Z,70.96
2018-05-29T19:12:54.683Z,70.47
2018-05-29T19:14:56.290Z,69.76
2018-05-29T19:17:40.168Z,70.54
2018-05-29T19:19:41.798Z,70.05
2018-05-29T19:21:43.274Z,72.73
2018-05-29T19:23:44.792Z,72.05
2018-05-29T19:25:46.315Z,72.44
2018-05-29T19:28:29.028Z,73.79
2018-05-29T19:30:31.713Z,73.79
2018-05-29T19:32:33.214Z,73.60
2018-05-29T19:34:34.683Z,74.76
2018-05-29T19:36:36.516Z,74.73
2018-05-29T19:39:17.666Z,73.95
2018-05-29T19:41:19.221Z,72.40
2018-05-29T19:43:20.713Z,74.30
2018-05-29T19:45:22.133Z,74.92
2018-05-29T19:47:23.602Z,75.31
2018-05-29T19:49:25.070Z,75.31
2018-05-29T19:51:26.518Z,75.31
2018-05-29T19:53:28.082Z,74.96
2018-05-29T19:55:29.860Z,72.79
2018-05-29T19:57:31.368Z,73.66
2018-05-29T19:59:32.846Z,73.75
2018-05-29T20:01:34.594Z,73.75
2018-05-29T20:03:37.031Z,73.37
2018-05-29T20:05:38.636Z,72.60
2018-05-29T20:07:40.267Z,74.73
2018-05-29T20:09:41.739Z,73.75
2018-05-29T20:11:43.437Z,74.73
2018-05-29T20:13:45.145Z,73.18
2018-05-29T20:15:46.565Z,73.75
2018-05-29T20:17:48.014Z,72.40
2018-05-29T20:19:49.444Z,73.18
2018-05-29T20:21:50.873Z,74.15
2018-05-29T20:23:52.312Z,73.57
2018-05-29T20:25:53.746Z,74.24
2018-05-29T20:27:55.220Z,74.15
2018-05-29T20:29:56.614Z,72.89
2018-05-29T20:31:58.037Z,72.36
2018-05-29T20:33:59.476Z,73.33
2018-05-29T20:36:00.945Z,74.43
2018-05-29T20:38:02.565Z,72.95
2018-05-29T20:40:04.068Z,74.69
2018-05-29T20:42:05.518Z,73.82
2018-05-29T20:44:07.025Z,73.04
2018-05-29T20:46:08.574Z,73.91
2018-05-29T20:48:10.080Z,73.72
2018-05-29T20:50:11.573Z,74.34
2018-05-29T20:52:13.081Z,73.95
2018-05-29T20:54:14.515Z,73.66
2018-05-29T20:56:15.952Z,75.02
2018-05-29T20:58:17.379Z,75.21
2018-05-29T21:00:18.811Z,74.53
2018-05-29T21:02:20.242Z,73.08
2018-05-29T21:04:21.676Z,74.82
2018-05-29T21:06:23.425Z,74.73
2018-05-29T21:08:24.935Z,74.05
2018-05-29T21:10:26.517Z,73.57
2018-05-29T21:12:28.036Z,73.75
2018-05-29T21:14:29.508Z,74.34
2018-05-29T21:16:31.066Z,73.75
2018-05-29T21:19:13.496Z,73.85
2018-05-29T21:21:14.923Z,73.85
2018-05-29T21:23:16.395Z,74.34
2018-05-29T21:25:17.829Z,72.98
2018-05-29T21:28:00.257Z,73.47
2018-05-29T21:30:01.686Z,73.47
2018-05-29T21:32:03.119Z,73.37
2018-05-29T21:34:04.559Z,74.05
2018-05-29T21:36:05.989Z,74.15
2018-05-29T21:38:07.448Z,74.63
2018-05-29T21:40:08.879Z,74.15
2018-05-29T21:42:10.322Z,74.73
2018-05-29T21:44:11.948Z,74.34
2018-05-29T21:46:13.548Z,73.47
2018-05-29T21:48:15.054Z,73.66
2018-05-29T21:50:16.493Z,73.75
2018-05-29T21:58:41.302Z,73.43
2018-05-29T22:00:42.738Z,74.24
2018-05-29T22:02:44.173Z,73.75
2018-05-29T22:04:45.601Z,73.37
2018-05-29T22:06:47.040Z,73.14
2018-05-29T22:08:48.507Z,74.40
2018-05-29T22:10:49.929Z,73.91
2018-05-29T22:12:51.399Z,74.21
2018-05-29T22:14:52.815Z,74.79
2018-05-29T22:16:54.347Z,73.91
2018-05-29T22:18:55.930Z,74.21
2018-05-29T22:20:57.417Z,73.63
2018-05-29T22:22:58.884Z,74.69
2018-05-29T22:25:00.803Z,75.27
2018-05-29T22:27:02.207Z,75.17
2018-05-29T22:29:03.668Z,74.69
2018-05-29T22:31:05.175Z,75.17
2018-05-29T22:33:06.729Z,74.79
2018-05-29T22:35:08.225Z,75.65
2018-05-29T22:37:09.700Z,75.65
2018-05-29T22:39:11.213Z,75.37
2018-05-29T22:41:12.824Z,74.59
2018-05-29T22:43:14.314Z,74.40
2018-05-29T22:45:15.885Z,75.37
2018-05-29T22:47:17.410Z,76.24
2018-05-29T22:49:19.133Z,75.56
2018-05-29T22:51:20.621Z,75.56
2018-05-29T22:53:22.101Z,76.04
2018-05-29T22:55:23.672Z,76.14
2018-05-29T22:57:25.239Z,75.46
2018-05-29T22:59:26.774Z,75.75
2018-05-29T23:01:28.259Z,75.75
2018-05-29T23:03:30.098Z,75.62
2018-05-29T23:05:31.704Z,76.14
2018-05-29T23:07:33.170Z,76.14
2018-05-29T23:10:15.601Z,75.62
2018-05-29T23:12:17.036Z,75.62
2018-05-29T23:14:18.461Z,75.62
2018-05-29T23:16:19.905Z,76.39
2018-05-29T23:18:21.356Z,75.91
2018-05-29T23:20:22.763Z,75.62
2018-05-29T23:22:24.384Z,76.20
2018-05-29T23:24:25.855Z,75.52
2018-05-29T23:26:27.276Z,74.94
2018-05-29T23:28:28.713Z,75.52
2018-05-29T23:30:30.147Z,76.20
2018-05-29T23:32:31.571Z,75.81
2018-05-29T23:34:33.029Z,75.62
2018-05-29T23:36:34.501Z,76.10
2018-05-29T23:38:36.050Z,76.10
2018-05-29T23:40:37.515Z,75.62
2018-05-29T23:42:39.005Z,75.91
2018-05-29T23:44:40.468Z,75.91
2018-05-29T23:46:41.928Z,75.23
2018-05-29T23:48:43.453Z,75.33
2018-05-29T23:50:44.897Z,75.33
2018-05-29T23:52:46.340Z,76.39
2018-05-29T23:54:47.899Z,75.68
2018-05-29T23:56:49.363Z,75.87
2018-05-29T23:59:31.816Z,75.62
